Time;durP1;ratioP1;P1;durP2;ratioP2;P2;SDS_P1;SDS_P2;PMS_P1;PMS_P2;Temp;Humidity;BMP_temperature;BMP_pressure;BME280_temperature;BME280_humidity;BME280_pressure;Samples;Min_cycle;Max_cycle;Signal;HPM_P1;HPM_P2
2023/03/09 00:01:54;;;;;;;;;;;;;;;11.88;48.86;99069.22;5094175;28;19970;-44
2023/03/09 00:04:20;;;;;;;;;;;;;;;11.84;48.90;99071.56;5094409;28;19916;-36
2023/03/09 00:06:46;;;;;;;;;;;;;;;12.01;49.26;99062.94;5094817;28;19912;-36
2023/03/09 00:09:12;;;;;;;;;;;;;;;12.07;49.01;99065.50;5094306;28;19928;-36
2023/03/09 00:11:41;;;;;;;;;;;;;;;12.00;49.28;99058.66;5094338;28;19916;-36
2023/03/09 00:14:06;;;;;;;;;;;;;;;11.90;48.79;99059.22;5094479;28;19919;-36
2023/03/09 00:16:31;;;;;;;;;;;;;;;11.49;50.14;99061.59;5094096;28;19916;-36
2023/03/09 00:18:57;;;;;;;;;;;;;;;11.54;50.30;99055.59;5094010;28;19912;-37
2023/03/09 00:21:40;;;;;;;;;;;;;;;11.16;51.48;99051.38;5094030;28;20520;-38
2023/03/09 00:24:09;;;;;;;;;;;;;;;11.10;52.33;99052.25;5093655;28;19989;-36
2023/03/09 00:26:36;;;;;;;;;;;;;;;11.14;51.52;99042.81;5094225;28;19912;-36
2023/03/09 00:29:02;;;;;;;;;;;;;;;11.25;51.64;99041.22;5093826;28;19912;-37
2023/03/09 00:31:27;;;;;;;;;;;;;;;11.09;52.38;99047.97;5093527;28;20399;-37
2023/03/09 00:33:52;;;;;;;;;;;;;;;11.24;51.86;99037.75;5094089;28;19965;-37
2023/03/09 00:36:18;;;;;;;;;;;;;;;11.22;51.71;99031.84;5093203;28;19951;-37
2023/03/09 00:38:43;;;;;;;;;;;;;;;11.37;51.31;99035.97;5093680;28;19919;-37
2023/03/09 00:41:09;;;;;;;;;;;;;;;11.25;50.97;99034.06;5093706;28;19912;-37
2023/03/09 00:43:34;;;;;;;;;;;;;;;11.22;51.48;99031.03;5093758;28;19913;-37
2023/03/09 00:46:00;;;;;;;;;;;;;;;11.20;51.19;99028.59;5093611;28;19915;-36
2023/03/09 00:48:25;;;;;;;;;;;;;;;11.23;50.69;99032.63;5093622;28;19965;-36
2023/03/09 00:50:51;;;;;;;;;;;;;;;11.21;51.14;99026.72;5094315;28;19943;-36
2023/03/09 00:53:16;;;;;;;;;;;;;;;11.61;50.40;99028.84;5094100;28;20010;-36
2023/03/09 00:55:42;;;;;;;;;;;;;;;11.78;48.96;99021.00;5093926;28;20051;-36
2023/03/09 00:58:07;;;;;;;;;;;;;;;11.71;49.93;99023.78;5093665;28;19912;-36
2023/03/09 01:00:33;;;;;;;;;;;;;;;11.50;49.92;99017.13;5093552;28;19955;-36
2023/03/09 01:02:58;;;;;;;;;;;;;;;11.48;49.81;99011.19;5094079;28;19937;-36
2023/03/09 01:05:23;;;;;;;;;;;;;;;11.31;50.69;99011.84;5093730;28;19912;-36
2023/03/09 01:07:49;;;;;;;;;;;;;;;11.34;50.50;99011.38;5093857;28;20003;-36
2023/03/09 01:10:14;;;;;;;;;;;;;;;11.16;50.59;99016.75;5093652;28;20371;-35
2023/03/09 01:12:39;;;;;;;;;;;;;;;11.29;50.93;99026.41;5093330;28;20010;-36
2023/03/09 01:15:05;;;;;;;;;;;;;;;11.08;51.46;99015.22;5093702;28;20348;-36
2023/03/09 01:17:30;;;;;;;;;;;;;;;11.16;51.07;99008.78;5093088;28;19919;-36
2023/03/09 01:19:55;;;;;;;;;;;;;;;11.20;51.19;99006.47;5093460;28;19919;-37
2023/03/09 01:22:21;;;;;;;;;;;;;;;11.16;51.61;99003.44;5093524;28;19967;-37
2023/03/09 01:24:46;;;;;;;;;;;;;;;10.99;51.66;99000.59;5093595;28;19916;-37
2023/03/09 01:27:11;;;;;;;;;;;;;;;11.08;51.32;98995.75;5093472;28;19912;-37
2023/03/09 01:29:37;;;;;;;;;;;;;;;10.94;51.57;98995.91;5092993;28;19912;-37
2023/03/09 01:32:02;;;;;;;;;;;;;;;10.79;51.56;98990.16;5093137;28;19920;-37
2023/03/09 01:34:27;;;;;;;;;;;;;;;10.81;51.78;98985.44;5093247;28;19912;-37
2023/03/09 01:36:52;;;;;;;;;;;;;;;10.96;51.40;98983.19;5092889;28;19990;-37
2023/03/09 01:39:18;;;;;;;;;;;;;;;10.81;51.38;98988.09;5093288;28;20229;-37
2023/03/09 01:41:43;;;;;;;;;;;;;;;10.77;51.64;98984.25;5093289;28;19953;-35
2023/03/09 01:44:12;;;;;;;;;;;;;;;10.86;51.71;98972.28;5092633;28;19912;-37
2023/03/09 01:46:48;;;;;;;;;;;;;;;10.89;52.27;98976.31;5092862;28;20348;-36
2023/03/09 01:49:19;;;;;;;;;;;;;;;10.72;52.22;98976.16;5092134;28;19912;-36
2023/03/09 01:51:45;;;;;;;;;;;;;;;10.71;52.57;98977.16;5092445;28;19917;-36
2023/03/09 01:54:13;;;;;;;;;;;;;;;10.79;52.12;98973.41;5092637;28;19985;-36
2023/03/09 01:56:40;;;;;;;;;;;;;;;10.76;52.28;98969.34;5093146;28;19995;-36
2023/03/09 01:59:08;;;;;;;;;;;;;;;10.60;52.21;98972.59;5093276;28;20296;-36
2023/03/09 02:01:34;;;;;;;;;;;;;;;10.70;52.22;98976.38;5092933;28;20046;-36
2023/03/09 02:04:02;;;;;;;;;;;;;;;10.76;52.35;98967.47;5092763;28;19947;-36
2023/03/09 02:06:28;;;;;;;;;;;;;;;10.69;52.25;98963.28;5092879;28;19919;-36
2023/03/09 02:09:00;;;;;;;;;;;;;;;10.57;52.88;98961.38;5092854;28;20002;-37
2023/03/09 02:11:26;;;;;;;;;;;;;;;10.34;53.36;98955.91;5092783;28;19923;-36
2023/03/09 02:13:53;;;;;;;;;;;;;;;10.12;54.00;98956.28;5092043;28;19912;-37
2023/03/09 02:16:18;;;;;;;;;;;;;;;10.35;54.10;98949.53;5092322;28;20446;-36
2023/03/09 02:18:44;;;;;;;;;;;;;;;10.56;52.96;98954.41;5091130;28;20380;-37
2023/03/09 02:21:15;;;;;;;;;;;;;;;10.80;52.85;98956.41;5092411;28;19993;-37
2023/03/09 02:23:59;;;;;;;;;;;;;;;11.10;50.98;98956.38;5092041;28;20082;-37
2023/03/09 02:26:27;;;;;;;;;;;;;;;10.98;51.60;98960.88;5092238;28;19950;-36
2023/03/09 02:28:52;;;;;;;;;;;;;;;10.90;50.90;98954.00;5092392;28;19919;-37
2023/03/09 02:31:18;;;;;;;;;;;;;;;11.12;51.07;98957.81;5092038;28;19912;-37
2023/03/09 02:33:43;;;;;;;;;;;;;;;11.38;49.46;98955.78;5092182;28;19912;-37
2023/03/09 02:36:09;;;;;;;;;;;;;;;11.40;50.29;98956.38;5091678;28;20045;-37
2023/03/09 02:38:34;;;;;;;;;;;;;;;11.20;50.72;98939.91;5092368;28;20003;-37
2023/03/09 02:41:01;;;;;;;;;;;;;;;11.30;50.17;98950.81;5092160;28;19973;-37
2023/03/09 02:43:28;;;;;;;;;;;;;;;11.22;50.91;98943.16;5091835;28;19912;-37
2023/03/09 02:45:54;;;;;;;;;;;;;;;11.18;51.09;98937.44;5092113;28;19912;-37
2023/03/09 02:48:19;;;;;;;;;;;;;;;11.18;50.98;98942.78;5091728;28;19912;-37
2023/03/09 02:50:44;;;;;;;;;;;;;;;11.24;49.97;98939.19;5091796;28;20320;-37
2023/03/09 02:53:10;;;;;;;;;;;;;;;11.27;49.79;98940.59;5091589;28;19924;-37
2023/03/09 02:55:35;;;;;;;;;;;;;;;10.95;51.14;98948.84;5091728;28;20004;-36
2023/03/09 02:58:01;;;;;;;;;;;;;;;11.10;51.19;98940.41;5091852;28;19935;-36
2023/03/09 03:00:26;;;;;;;;;;;;;;;11.16;50.46;98934.22;5091558;28;19951;-36
2023/03/09 03:02:51;;;;;;;;;;;;;;;11.20;50.92;98945.22;5091215;28;20344;-36
2023/03/09 03:05:17;;;;;;;;;;;;;;;11.17;51.09;98941.16;5091337;28;19919;-37
2023/03/09 03:07:42;;;;;;;;;;;;;;;11.18;50.85;98947.31;5091400;28;20263;-36
2023/03/09 03:10:08;;;;;;;;;;;;;;;10.93;51.07;98945.59;5091108;28;19987;-37
2023/03/09 03:12:33;;;;;;;;;;;;;;;10.88;51.89;98951.56;5090888;28;20410;-36
2023/03/09 03:14:58;;;;;;;;;;;;;;;10.96;51.15;98963.75;5090797;28;19912;-37
2023/03/09 03:17:23;;;;;;;;;;;;;;;10.57;53.26;98958.69;5090733;28;20379;-37
2023/03/09 03:19:49;;;;;;;;;;;;;;;10.81;51.48;98977.44;5090977;28;19940;-37
2023/03/09 03:22:14;;;;;;;;;;;;;;;10.03;54.49;98976.19;5090560;28;19927;-37
2023/03/09 03:24:40;;;;;;;;;;;;;;;9.96;54.92;98965.63;5090986;28;19920;-37
2023/03/09 03:27:05;;;;;;;;;;;;;;;10.00;54.92;98965.22;5105257;28;19918;-37
2023/03/09 03:29:31;;;;;;;;;;;;;;;9.75;56.09;98963.38;5095266;28;19916;-37
2023/03/09 03:31:56;;;;;;;;;;;;;;;9.48;57.01;98973.38;5111986;28;19916;-38
2023/03/09 03:34:21;;;;;;;;;;;;;;;9.62;56.89;98977.56;5111791;28;20321;-37
2023/03/09 03:36:47;;;;;;;;;;;;;;;9.44;57.56;98977.47;5111474;28;19911;-37
2023/03/09 03:39:12;;;;;;;;;;;;;;;9.86;55.54;98980.44;5111488;28;19912;-37
2023/03/09 03:41:37;;;;;;;;;;;;;;;9.48;56.97;98976.00;5111646;28;19969;-37
2023/03/09 03:44:03;;;;;;;;;;;;;;;9.61;56.95;98972.47;5111442;28;19915;-37
2023/03/09 03:46:28;;;;;;;;;;;;;;;9.54;56.88;98978.66;5111369;28;19912;-37
2023/03/09 03:48:53;;;;;;;;;;;;;;;9.16;58.02;98984.81;5111341;28;19912;-37
2023/03/09 03:51:19;;;;;;;;;;;;;;;9.15;58.20;98985.00;5111688;28;19911;-37
2023/03/09 03:53:44;;;;;;;;;;;;;;;9.02;58.96;98977.13;5093317;28;19912;-37
2023/03/09 03:56:09;;;;;;;;;;;;;;;9.28;58.07;98984.94;5091523;28;19935;-37
2023/03/09 03:58:35;;;;;;;;;;;;;;;8.82;59.33;98987.84;5090932;28;20265;-37
2023/03/09 04:01:00;;;;;;;;;;;;;;;8.69;59.69;98984.19;5090810;28;19916;-37
2023/03/09 04:03:25;;;;;;;;;;;;;;;8.52;60.32;98981.19;5090686;28;19919;-36
2023/03/09 04:05:50;;;;;;;;;;;;;;;8.56;60.06;98986.88;5091118;28;19943;-36
2023/03/09 04:08:16;;;;;;;;;;;;;;;8.51;60.27;98992.81;5090749;28;20356;-36
2023/03/09 04:10:41;;;;;;;;;;;;;;;8.50;60.92;98993.03;5091857;28;19912;-36
2023/03/09 04:13:07;;;;;;;;;;;;;;;8.23;61.83;98985.91;5094411;28;19920;-37
2023/03/09 04:15:32;;;;;;;;;;;;;;;8.60;60.40;98994.22;5094389;28;20265;-36
2023/03/09 04:17:58;;;;;;;;;;;;;;;8.88;59.67;98992.28;5094272;28;19948;-36
2023/03/09 04:20:23;;;;;;;;;;;;;;;8.81;59.76;98994.94;5094042;28;19995;-35
2023/03/09 04:22:49;;;;;;;;;;;;;;;8.67;60.03;98988.09;5094437;28;20018;-35
2023/03/09 04:25:15;;;;;;;;;;;;;;;8.52;60.89;98990.97;5094610;28;19912;-36
2023/03/09 04:27:40;;;;;;;;;;;;;;;8.74;60.55;98996.84;5094669;28;19912;-37
2023/03/09 04:30:06;;;;;;;;;;;;;;;9.13;58.80;98995.84;5094356;28;19931;-36
2023/03/09 04:32:31;;;;;;;;;;;;;;;8.95;59.18;98998.38;5094376;28;19916;-36
2023/03/09 04:34:56;;;;;;;;;;;;;;;8.93;58.87;99000.41;5094496;28;20308;-36
2023/03/09 04:37:22;;;;;;;;;;;;;;;8.83;59.24;99002.72;5094412;28;19919;-36
2023/03/09 04:39:47;;;;;;;;;;;;;;;9.04;58.38;99004.25;5094335;28;19969;-37
2023/03/09 04:42:12;;;;;;;;;;;;;;;9.07;58.13;99003.84;5094000;28;19969;-36
2023/03/09 04:44:37;;;;;;;;;;;;;;;8.87;58.67;99001.25;5094212;28;19996;-36
2023/03/09 04:47:03;;;;;;;;;;;;;;;8.37;61.09;99001.78;5094034;28;19923;-36
2023/03/09 04:49:29;;;;;;;;;;;;;;;8.23;61.70;98999.16;5094198;28;19912;-36
2023/03/09 04:51:55;;;;;;;;;;;;;;;8.50;61.25;98985.06;5093992;28;19923;-36
2023/03/09 04:54:20;;;;;;;;;;;;;;;8.57;60.39;98984.03;5094043;28;19927;-36
2023/03/09 04:56:45;;;;;;;;;;;;;;;8.69;60.63;98988.69;5093868;28;19931;-36
2023/03/09 04:59:10;;;;;;;;;;;;;;;8.99;59.31;98987.13;5094024;28;19923;-36
2023/03/09 05:01:36;;;;;;;;;;;;;;;8.76;59.74;98990.28;5093737;28;19912;-36
2023/03/09 05:04:01;;;;;;;;;;;;;;;8.98;58.86;98990.78;5093707;28;19941;-36
2023/03/09 05:06:26;;;;;;;;;;;;;;;9.10;58.98;98998.94;5093419;28;19919;-36
2023/03/09 05:08:51;;;;;;;;;;;;;;;9.08;58.69;98992.19;5093691;28;19912;-37
2023/03/09 05:11:17;;;;;;;;;;;;;;;8.86;59.53;98989.03;5093804;28;19920;-37
2023/03/09 05:13:42;;;;;;;;;;;;;;;8.97;59.36;98997.16;5093242;28;19950;-36
2023/03/09 05:16:07;;;;;;;;;;;;;;;8.98;58.93;98997.94;5093501;28;19912;-37
2023/03/09 05:18:34;;;;;;;;;;;;;;;8.95;64.98;98998.38;5093471;28;20295;-36
2023/03/09 05:20:59;;;;;;;;;;;;;;;10.15;63.79;99001.03;5093366;28;19935;-36
2023/03/09 05:23:24;;;;;;;;;;;;;;;11.30;61.83;99007.53;5093174;28;19924;-37
2023/03/09 05:25:57;;;;;;;;;;;;;;;12.35;57.43;98996.50;5093106;28;19916;-36
2023/03/09 05:28:24;;;;;;;;;;;;;;;13.29;57.80;99002.44;5093172;28;19916;-37
2023/03/09 05:30:50;;;;;;;;;;;;;;;14.07;53.29;99001.91;5093304;28;19916;-36
2023/03/09 05:33:15;;;;;;;;;;;;;;;15.13;56.27;99000.06;5092924;28;20276;-37
2023/03/09 05:35:40;;;;;;;;;;;;;;;16.16;42.58;98988.41;5092921;28;19911;-37
2023/03/09 05:38:06;;;;;;;;;;;;;;;16.31;42.21;98991.19;5092798;28;19920;-37
2023/03/09 05:40:31;;;;;;;;;;;;;;;16.22;42.08;99001.63;5092714;28;19912;-37
2023/03/09 05:42:56;;;;;;;;;;;;;;;15.92;42.48;99004.09;5092924;28;20482;-36
2023/03/09 05:45:21;;;;;;;;;;;;;;;15.98;41.22;99000.38;5092210;28;19935;-36
2023/03/09 05:47:47;;;;;;;;;;;;;;;15.85;40.86;99004.28;5091946;28;20458;-38
2023/03/09 05:50:12;;;;;;;;;;;;;;;16.30;40.88;98994.97;5092516;28;19923;-37
2023/03/09 05:52:37;;;;;;;;;;;;;;;16.66;38.93;98997.84;5092090;28;19974;-37
2023/03/09 05:55:03;;;;;;;;;;;;;;;17.01;38.64;98991.00;5092266;28;19912;-37
2023/03/09 05:57:28;;;;;;;;;;;;;;;16.94;38.91;99002.00;5091860;28;19969;-37
2023/03/09 05:59:53;;;;;;;;;;;;;;;16.36;40.79;99012.69;5091117;28;19916;-37
2023/03/09 06:02:18;;;;;;;;;;;;;;;16.99;39.00;98995.84;5091447;28;20008;-37
2023/03/09 06:04:48;;;;;;;;;;;;;;;17.82;38.20;99003.00;5091646;28;19912;-36
2023/03/09 06:07:13;;;;;;;;;;;;;;;18.55;36.31;98999.94;5091420;28;20340;-36
2023/03/09 06:09:38;;;;;;;;;;;;;;;18.91;35.52;99007.16;5091885;28;19923;-36
2023/03/09 06:12:04;;;;;;;;;;;;;;;19.53;34.66;99013.00;5091124;28;20086;-36
2023/03/09 06:14:29;;;;;;;;;;;;;;;19.78;35.18;99003.13;5091547;28;19923;-37
2023/03/09 06:16:54;;;;;;;;;;;;;;;19.93;32.67;99005.72;5091369;28;19912;-36
2023/03/09 06:19:20;;;;;;;;;;;;;;;18.67;34.78;99005.03;5091681;28;20391;-38
2023/03/09 06:21:45;;;;;;;;;;;;;;;18.74;34.84;99004.75;5091595;28;19916;-36
2023/03/09 06:24:10;;;;;;;;;;;;;;;19.15;35.00;99009.97;5091126;28;20697;-37
2023/03/09 06:26:36;;;;;;;;;;;;;;;19.71;33.74;99009.63;5091720;28;20299;-38
2023/03/09 06:29:01;;;;;;;;;;;;;;;20.08;33.29;99018.28;5091104;28;19920;-37
2023/03/09 06:31:26;;;;;;;;;;;;;;;19.87;33.03;99023.84;5090965;28;19956;-37
2023/03/09 06:33:51;;;;;;;;;;;;;;;20.17;31.72;99027.38;5090602;28;20417;-37
2023/03/09 06:36:17;;;;;;;;;;;;;;;20.73;31.13;99031.44;5091302;28;19996;-37
2023/03/09 06:38:42;;;;;;;;;;;;;;;20.81;30.87;99025.41;5090882;28;19912;-37
2023/03/09 06:41:08;;;;;;;;;;;;;;;21.07;31.12;99023.16;5091309;28;20014;-36
2023/03/09 06:43:33;;;;;;;;;;;;;;;21.06;30.59;99021.56;5091213;28;20392;-37
2023/03/09 06:45:59;;;;;;;;;;;;;;;20.80;30.51;99014.88;5091509;28;19912;-36
2023/03/09 06:48:24;;;;;;;;;;;;;;;21.16;30.05;99011.72;5091388;28;20364;-37
2023/03/09 06:50:50;;;;;;;;;;;;;;;21.22;29.97;99008.63;5091312;28;19971;-37
2023/03/09 06:53:15;;;;;;;;;;;;;;;21.50;29.11;99008.03;5090189;28;19955;-37
2023/03/09 06:55:41;;;;;;;;;;;;;;;21.65;28.34;99005.91;5090799;28;20383;-35
2023/03/09 06:58:06;;;;;;;;;;;;;;;21.48;29.04;99011.81;5091390;28;19920;-36
2023/03/09 07:00:31;;;;;;;;;;;;;;;21.65;28.75;99011.31;5090998;28;20024;-36
2023/03/09 07:02:57;;;;;;;;;;;;;;;21.32;29.54;99017.72;5090417;28;20403;-36
2023/03/09 07:05:23;;;;;;;;;;;;;;;21.07;29.50;99014.25;5089375;28;20343;-37
2023/03/09 07:07:48;;;;;;;;;;;;;;;21.08;29.30;99010.47;5089498;28;20025;-37
2023/03/09 07:10:13;;;;;;;;;;;;;;;21.02;29.82;99008.94;5089840;28;19938;-36
2023/03/09 07:12:38;;;;;;;;;;;;;;;21.28;29.74;99009.38;5090145;28;19963;-37
2023/03/09 07:15:04;;;;;;;;;;;;;;;20.47;31.35;99011.97;5090130;28;19913;-36
2023/03/09 07:17:30;;;;;;;;;;;;;;;19.55;33.45;99010.81;5090306;28;19951;-35
2023/03/09 07:19:56;;;;;;;;;;;;;;;19.10;34.83;99010.03;5090490;28;20213;-36
2023/03/09 07:22:22;;;;;;;;;;;;;;;18.92;35.95;99000.66;5090643;28;20023;-36
2023/03/09 07:24:47;;;;;;;;;;;;;;;19.45;35.77;99008.19;5090594;28;19947;-36
2023/03/09 07:27:12;;;;;;;;;;;;;;;20.00;34.69;99011.59;5090850;28;19951;-36
2023/03/09 07:29:40;;;;;;;;;;;;;;;20.63;33.10;99008.03;5090442;28;20002;-35
2023/03/09 07:32:05;;;;;;;;;;;;;;;21.27;31.93;98999.66;5090337;28;20011;-36
2023/03/09 07:34:31;;;;;;;;;;;;;;;21.48;31.48;99008.31;5090397;28;20072;-36
2023/03/09 07:36:57;;;;;;;;;;;;;;;21.12;31.36;99005.28;5090608;28;19939;-36
2023/03/09 07:39:22;;;;;;;;;;;;;;;20.38;32.42;99010.97;5090486;28;19978;-37
2023/03/09 07:41:47;;;;;;;;;;;;;;;20.12;32.67;99005.81;5090698;28;20462;-37
2023/03/09 07:44:13;;;;;;;;;;;;;;;20.33;33.11;99005.63;5090662;28;19935;-36
2023/03/09 07:46:38;;;;;;;;;;;;;;;20.21;34.61;99004.09;5092627;28;19932;-36
2023/03/09 07:49:04;;;;;;;;;;;;;;;20.56;33.45;98995.91;5094333;28;19919;-36
2023/03/09 07:51:29;;;;;;;;;;;;;;;20.38;33.71;98976.66;5094437;28;20299;-38
2023/03/09 07:53:54;;;;;;;;;;;;;;;20.81;33.19;98994.84;5094385;28;20277;-36
2023/03/09 07:56:20;;;;;;;;;;;;;;;21.41;32.42;98986.19;5094668;28;19916;-37
2023/03/09 07:58:46;;;;;;;;;;;;;;;21.03;32.95;98994.31;5094380;28;19912;-36
2023/03/09 08:01:16;;;;;;;;;;;;;;;21.25;32.15;98985.63;5094272;28;19916;-36
2023/03/09 08:03:42;;;;;;;;;;;;;;;21.58;32.02;99000.03;5094508;28;19999;-37
2023/03/09 08:06:09;;;;;;;;;;;;;;;21.30;32.11;98996.34;5094312;28;20347;-36
2023/03/09 08:08:34;;;;;;;;;;;;;;;21.39;31.84;98989.19;5094308;28;20044;-37
2023/03/09 08:10:59;;;;;;;;;;;;;;;21.45;31.98;98989.97;5093972;28;20336;-35
2023/03/09 08:13:25;;;;;;;;;;;;;;;21.44;32.04;98989.16;5093958;28;19981;-36
2023/03/09 08:15:51;;;;;;;;;;;;;;;21.87;31.81;98990.91;5094114;28;19912;-36
2023/03/09 08:18:20;;;;;;;;;;;;;;;22.45;30.83;98984.25;5094378;28;19912;-36
2023/03/09 08:20:45;;;;;;;;;;;;;;;22.49;31.11;98979.81;5094260;28;19916;-36
2023/03/09 08:23:10;;;;;;;;;;;;;;;22.53;30.41;98980.03;5094004;28;19928;-36
2023/03/09 08:25:36;;;;;;;;;;;;;;;22.72;30.47;98975.31;5093821;28;20395;-36
2023/03/09 08:28:02;;;;;;;;;;;;;;;22.84;30.24;98970.16;5093739;28;19920;-36
2023/03/09 08:30:27;;;;;;;;;;;;;;;22.47;30.19;98973.91;5093998;28;19916;-36
2023/03/09 08:32:53;;;;;;;;;;;;;;;23.11;29.11;98971.22;5093718;28;19916;-36
2023/03/09 08:35:19;;;;;;;;;;;;;;;23.26;28.84;98974.72;5093412;28;19911;-37
2023/03/09 08:37:45;;;;;;;;;;;;;;;23.10;29.26;98960.72;5093769;28;19916;-36
2023/03/09 08:40:11;;;;;;;;;;;;;;;23.29;28.90;98966.00;5093420;28;20452;-37
2023/03/09 08:42:36;;;;;;;;;;;;;;;23.66;28.34;98967.53;5092956;28;19911;-35
2023/03/09 08:45:02;;;;;;;;;;;;;;;23.71;28.32;98966.63;5092752;28;19939;-35
2023/03/09 08:47:29;;;;;;;;;;;;;;;23.12;28.98;98966.63;5093465;28;19934;-35
2023/03/09 08:49:54;;;;;;;;;;;;;;;23.42;28.06;98965.94;5093615;28;20245;-36
2023/03/09 08:52:19;;;;;;;;;;;;;;;23.32;28.45;98970.78;5093476;28;19968;-36
2023/03/09 08:54:46;;;;;;;;;;;;;;;23.76;27.57;98966.47;5093110;28;19943;-36
2023/03/09 08:57:11;;;;;;;;;;;;;;;23.48;27.54;98974.75;5092684;28;19916;-37
2023/03/09 08:59:37;;;;;;;;;;;;;;;23.16;28.53;98970.34;5092985;28;19947;-36
2023/03/09 09:02:02;;;;;;;;;;;;;;;23.18;28.26;98962.69;5093279;28;19912;-36
2023/03/09 09:04:28;;;;;;;;;;;;;;;23.27;27.97;98966.28;5093059;28;19935;-37
2023/03/09 09:06:53;;;;;;;;;;;;;;;23.78;27.41;98967.81;5093251;28;20398;-36
2023/03/09 09:09:19;;;;;;;;;;;;;;;24.23;27.11;98977.00;5092918;28;20371;-35
2023/03/09 09:11:45;;;;;;;;;;;;;;;24.58;26.40;98975.28;5092616;28;20015;-37
2023/03/09 09:14:10;;;;;;;;;;;;;;;24.66;26.79;98970.97;5092964;28;19999;-36
2023/03/09 09:16:35;;;;;;;;;;;;;;;24.88;26.14;98965.41;5092945;28;19912;-36
2023/03/09 09:19:01;;;;;;;;;;;;;;;24.71;26.11;98960.75;5092797;28;19916;-37
2023/03/09 09:21:28;;;;;;;;;;;;;;;24.84;25.85;98950.84;5092925;28;20317;-37
2023/03/09 09:23:53;;;;;;;;;;;;;;;25.11;25.58;98949.78;5092456;28;20241;-36
2023/03/09 09:26:18;;;;;;;;;;;;;;;25.43;25.25;98946.91;5092466;28;20439;-36
2023/03/09 09:28:44;;;;;;;;;;;;;;;25.64;25.12;98939.66;5092743;28;19916;-36
2023/03/09 09:31:12;;;;;;;;;;;;;;;25.89;25.12;98940.75;5092731;28;20296;-36
2023/03/09 09:33:38;;;;;;;;;;;;;;;25.87;25.23;98931.28;5092293;28;19916;-36
2023/03/09 09:36:05;;;;;;;;;;;;;;;25.72;24.87;98929.88;5092742;28;19931;-36
2023/03/09 09:38:33;;;;;;;;;;;;;;;25.57;25.14;98928.47;5091813;28;19912;-35
2023/03/09 09:41:02;;;;;;;;;;;;;;;25.91;24.78;98924.06;5092133;28;19912;-36
2023/03/09 09:43:29;;;;;;;;;;;;;;;26.05;23.63;98923.91;5092474;28;19960;-36
2023/03/09 09:45:56;;;;;;;;;;;;;;;25.76;25.79;98925.41;5092206;28;19945;-37
2023/03/09 09:48:22;;;;;;;;;;;;;;;25.84;25.26;98926.50;5092386;28;19923;-37
2023/03/09 09:51:05;;;;;;;;;;;;;;;26.19;24.63;98931.84;5092607;28;19912;-36
2023/03/09 09:53:38;;;;;;;;;;;;;;;25.50;24.48;98926.22;5092159;28;19994;-36
2023/03/09 09:56:08;;;;;;;;;;;;;;;25.82;24.32;98918.66;5092161;28;19995;-36
2023/03/09 09:58:44;;;;;;;;;;;;;;;25.64;24.12;98906.97;5092440;28;19974;-35
2023/03/09 10:01:27;;;;;;;;;;;;;;;25.54;24.76;98912.78;5091984;28;20019;-36
2023/03/09 10:03:58;;;;;;;;;;;;;;;25.37;24.69;98913.59;5091611;28;20391;-35
2023/03/09 10:06:24;;;;;;;;;;;;;;;25.30;24.76;98907.81;5091714;28;19912;-35
2023/03/09 10:08:53;;;;;;;;;;;;;;;24.97;24.83;98911.00;5090672;28;20394;-36
2023/03/09 10:11:31;;;;;;;;;;;;;;;25.38;24.66;98892.59;5091632;28;19912;-37
2023/03/09 10:14:08;;;;;;;;;;;;;;;25.84;24.10;98896.53;5092022;28;19959;-36
2023/03/09 10:16:36;;;;;;;;;;;;;;;25.21;24.25;98879.78;5092076;28;19920;-36
2023/03/09 10:19:03;;;;;;;;;;;;;;;25.92;24.88;98879.38;5091542;28;19962;-36
2023/03/09 10:21:35;;;;;;;;;;;;;;;26.43;23.35;98874.00;5091607;28;20003;-37
2023/03/09 10:24:10;;;;;;;;;;;;;;;26.81;22.68;98868.47;5091780;28;19924;-37
2023/03/09 10:26:42;;;;;;;;;;;;;;;26.66;22.92;98864.41;5091330;28;19999;-36
2023/03/09 10:29:25;;;;;;;;;;;;;;;26.50;23.56;98855.16;5091524;28;19912;-35
2023/03/09 10:31:58;;;;;;;;;;;;;;;25.67;23.52;98862.75;5091404;28;19916;-36
2023/03/09 10:34:24;;;;;;;;;;;;;;;25.43;23.89;98852.38;5091780;28;19919;-35
2023/03/09 10:36:55;;;;;;;;;;;;;;;25.90;23.51;98857.06;5091431;28;19919;-35
2023/03/09 10:39:21;;;;;;;;;;;;;;;26.16;23.54;98854.25;5091222;28;19912;-37
2023/03/09 10:41:46;;;;;;;;;;;;;;;24.66;25.12;98859.47;5090415;28;19919;-36
2023/03/09 10:44:15;;;;;;;;;;;;;;;25.63;23.87;98850.91;5091035;28;20052;-36
2023/03/09 10:46:58;;;;;;;;;;;;;;;26.21;23.73;98843.16;5090921;28;19912;-36
2023/03/09 10:49:23;;;;;;;;;;;;;;;26.75;23.00;98826.16;5091544;28;19925;-36
2023/03/09 10:52:00;;;;;;;;;;;;;;;27.00;22.46;98818.06;5090600;28;19966;-35
2023/03/09 10:54:27;;;;;;;;;;;;;;;26.28;22.69;98815.38;5091161;28;19919;-36
2023/03/09 10:56:52;;;;;;;;;;;;;;;26.18;22.92;98808.38;5091070;28;20018;-35
2023/03/09 10:59:20;;;;;;;;;;;;;;;26.60;22.03;98803.00;5091327;28;19991;-35
2023/03/09 11:01:47;;;;;;;;;;;;;;;26.79;22.50;98801.69;5090830;28;19912;-36
2023/03/09 11:04:21;;;;;;;;;;;;;;;27.00;22.12;98798.97;5090504;28;19923;-36
2023/03/09 11:06:48;;;;;;;;;;;;;;;26.84;21.85;98794.09;5090719;28;20287;-36
2023/03/09 11:09:17;;;;;;;;;;;;;;;26.32;22.22;98789.84;5090833;28;19912;-36
2023/03/09 11:11:45;;;;;;;;;;;;;;;26.29;22.22;98785.06;5090326;28;19920;-38
2023/03/09 11:14:26;;;;;;;;;;;;;;;26.33;22.06;98783.25;5090520;28;20342;-37
2023/03/09 11:16:53;;;;;;;;;;;;;;;26.37;22.20;98783.41;5090621;28;19916;-36
2023/03/09 11:19:19;;;;;;;;;;;;;;;26.57;21.96;98767.38;5090700;28;19981;-36
2023/03/09 11:21:56;;;;;;;;;;;;;;;26.91;21.94;98769.00;5091163;28;19920;-37
2023/03/09 11:24:24;;;;;;;;;;;;;;;26.97;21.17;98766.88;5090886;28;20018;-37
2023/03/09 11:26:56;;;;;;;;;;;;;;;25.05;23.78;98751.56;5090733;28;19947;-36
2023/03/09 11:29:39;;;;;;;;;;;;;;;24.32;25.27;98753.03;5090881;28;20476;-37
2023/03/09 11:32:07;;;;;;;;;;;;;;;23.27;26.51;98746.44;5091049;28;20380;-37
2023/03/09 11:34:33;;;;;;;;;;;;;;;23.16;26.91;98751.34;5091497;28;19963;-36
2023/03/09 11:37:17;;;;;;;;;;;;;;;22.56;27.02;98754.41;5091109;28;19919;-36
2023/03/09 11:39:55;;;;;;;;;;;;;;;22.38;27.74;98729.06;5090738;28;19913;-35
2023/03/09 11:42:28;;;;;;;;;;;;;;;22.87;27.41;98729.28;5090650;28;19985;-35
2023/03/09 11:44:54;;;;;;;;;;;;;;;23.56;26.46;98726.13;5090734;28;20320;-36
2023/03/09 11:47:22;;;;;;;;;;;;;;;23.39;26.79;98719.50;5091236;28;19912;-37
2023/03/09 11:49:48;;;;;;;;;;;;;;;23.47;26.54;98714.44;5090514;28;20394;-36
2023/03/09 11:52:18;;;;;;;;;;;;;;;22.88;27.84;98712.69;5090355;28;19959;-36
2023/03/09 11:54:44;;;;;;;;;;;;;;;22.99;27.27;98705.09;5090645;28;20357;-36
2023/03/09 11:57:14;;;;;;;;;;;;;;;22.81;27.21;98705.00;5091072;28;19912;-37
2023/03/09 11:59:45;;;;;;;;;;;;;;;23.54;26.28;98698.50;5090816;28;19924;-37
2023/03/09 12:02:14;;;;;;;;;;;;;;;23.70;26.52;98686.06;5090372;28;20031;-36
2023/03/09 12:04:39;;;;;;;;;;;;;;;23.68;26.75;98684.78;5090317;28;19912;-36
2023/03/09 12:07:14;;;;;;;;;;;;;;;23.65;26.55;98682.72;5090553;28;19912;-37
2023/03/09 12:09:59;;;;;;;;;;;;;;;23.20;27.17;98672.81;5090093;28;19913;-36
2023/03/09 12:12:40;;;;;;;;;;;;;;;23.40;26.90;98696.69;5090475;28;19916;-35
2023/03/09 12:15:05;;;;;;;;;;;;;;;23.69;26.31;98684.47;5090400;28;20240;-37
2023/03/09 12:17:35;;;;;;;;;;;;;;;23.20;26.70;98694.53;5090369;28;19965;-38
2023/03/09 12:20:01;;;;;;;;;;;;;;;23.31;26.37;98693.16;5090284;28;19934;-37
2023/03/09 12:22:31;;;;;;;;;;;;;;;24.40;25.74;98689.69;5090385;28;19920;-37
2023/03/09 12:24:58;;;;;;;;;;;;;;;24.68;25.20;98694.03;5090060;28;19916;-37
2023/03/09 12:27:24;;;;;;;;;;;;;;;24.84;25.18;98689.66;5089618;28;19912;-37
2023/03/09 12:30:10;;;;;;;;;;;;;;;25.47;24.74;98686.44;5090097;28;19913;-39
2023/03/09 12:32:37;;;;;;;;;;;;;;;24.62;25.28;98698.00;5091438;28;20006;-36
2023/03/09 12:35:13;;;;;;;;;;;;;;;23.86;26.48;98685.69;5094268;28;19916;-36
2023/03/09 12:37:44;;;;;;;;;;;;;;;24.21;26.34;98691.94;5094111;28;20003;-37
2023/03/09 12:40:32;;;;;;;;;;;;;;;23.32;26.86;98681.19;5093599;28;20026;-37
2023/03/09 12:43:21;;;;;;;;;;;;;;;22.97;27.61;98670.13;5090483;28;19912;-37
2023/03/09 12:45:50;;;;;;;;;;;;;;;23.48;26.78;98678.84;5095525;28;20011;-35
2023/03/09 12:48:25;;;;;;;;;;;;;;;23.88;26.17;98659.78;5113900;28;19915;-35